Eger, Hungary
Current Conditions -  °F | °C
As of 10:45 AM on Tuesday 21 Oct 2014 (Local Time) from LHSN Reporting Station
Light Rain Light Rain  
Wind Chill: 57°   Ceiling: 5000
Heat Index: 57°   Visibility: 6mi
Dew Point: 55°   Wind: 4mph
Humidity: 94%   Direction: 340°NNW
Pressure: 29.88"   Gusts: NA
Location:  47.9°N, 20.38°E
Report Text: LHSN 210845Z 34002MPS 9999 -RA BKN050 BKN083 14/13 Q1012 NOSIG RMK BLU
Loading
Personal Weather Stations






























Interactive Weather Map
Tropical Storm Tracking
New forecast layout! Learn more

10-Day Weather Forecast

Advertisements
Track Severe Weather on mobile